createdAt,value
2023-04-01T00:01:17.169Z,11.00
2023-04-01T00:03:44.718Z,11.00
2023-04-01T00:06:18.525Z,10.90
2023-04-01T00:08:45.704Z,10.90
2023-04-01T00:11:12.772Z,11.00
2023-04-01T00:13:39.469Z,10.90
2023-04-01T00:16:17.743Z,11.00
2023-04-01T00:18:48.212Z,11.00
2023-04-01T00:21:15.500Z,11.00
2023-04-01T00:23:42.634Z,11.00
2023-04-01T00:26:09.342Z,10.90
2023-04-01T00:28:36.971Z,10.90
2023-04-01T00:31:07.914Z,10.90
2023-04-01T00:33:34.654Z,10.90
2023-04-01T00:36:16.489Z,10.90
2023-04-01T00:38:43.860Z,10.80
2023-04-01T00:41:15.816Z,10.90
2023-04-01T00:43:44.562Z,10.80
2023-04-01T00:46:11.385Z,10.80
2023-04-01T00:48:42.759Z,10.80
2023-04-01T00:51:17.866Z,10.90
2023-04-01T00:53:48.490Z,10.80
2023-04-01T00:56:18.766Z,10.80
2023-04-01T00:58:50.291Z,10.80
2023-04-01T01:01:17.295Z,10.90
2023-04-01T01:03:43.990Z,10.90
2023-04-01T01:06:24.549Z,10.90
2023-04-01T01:09:22.281Z,10.80
2023-04-01T01:12:13.659Z,10.90
2023-04-01T01:15:12.902Z,10.90
2023-04-01T01:17:52.391Z,10.90
2023-04-01T01:20:43.182Z,10.90
2023-04-01T01:23:28.160Z,10.90
2023-04-01T01:26:27.400Z,10.90
2023-04-01T01:29:16.496Z,10.90
2023-04-01T01:32:08.451Z,10.90
2023-04-01T01:34:50.063Z,10.80
2023-04-01T01:37:20.274Z,10.80
2023-04-01T01:39:55.703Z,10.90
2023-04-01T01:42:25.361Z,10.80
2023-04-01T01:44:54.567Z,10.80
2023-04-01T01:47:23.444Z,10.80
2023-04-01T01:49:51.525Z,10.90
2023-04-01T01:52:18.282Z,10.80
2023-04-01T01:54:55.975Z,10.90
2023-04-01T01:57:27.875Z,10.90
2023-04-01T02:00:01.638Z,10.90
2023-04-01T02:02:32.407Z,10.90
2023-04-01T02:04:59.582Z,10.90
2023-04-01T02:07:31.579Z,10.90
2023-04-01T02:09:58.354Z,10.90
2023-04-01T02:12:25.814Z,10.90
2023-04-01T02:15:10.788Z,10.80
2023-04-01T02:17:41.999Z,10.90
2023-04-01T02:20:11.809Z,10.80
2023-04-01T02:22:42.891Z,10.80
2023-04-01T02:25:15.498Z,10.90
2023-04-01T02:27:44.474Z,10.80
2023-04-01T02:30:12.766Z,10.80
2023-04-01T02:32:40.377Z,10.70
2023-04-01T02:35:17.831Z,10.70
2023-04-01T02:37:49.524Z,10.60
2023-04-01T02:40:17.270Z,10.70
2023-04-01T02:42:43.922Z,10.60
2023-04-01T02:45:11.516Z,10.70
2023-04-01T02:47:38.131Z,10.70
2023-04-01T02:50:05.954Z,10.60
2023-04-01T02:52:32.782Z,10.60
2023-04-01T02:54:59.412Z,10.50
2023-04-01T02:57:26.569Z,10.50
2023-04-01T02:59:53.282Z,10.50
2023-04-01T03:02:19.942Z,10.40
2023-04-01T03:04:46.792Z,10.40
2023-04-01T03:07:13.597Z,10.40
2023-04-01T03:09:40.844Z,10.30
2023-04-01T03:12:07.531Z,10.40
2023-04-01T03:14:34.175Z,10.30
2023-04-01T03:17:00.926Z,10.40
2023-04-01T03:19:27.543Z,10.30
2023-04-01T03:21:54.193Z,10.30
2023-04-01T03:24:21.384Z,10.40
2023-04-01T03:26:48.028Z,10.40
2023-04-01T03:29:16.590Z,10.40
2023-04-01T03:31:43.293Z,10.40
2023-04-01T03:34:10.055Z,10.40
2023-04-01T03:36:36.905Z,10.40
2023-04-01T03:39:04.696Z,10.40
2023-04-01T03:41:31.769Z,10.50
2023-04-01T03:43:58.397Z,10.50
2023-04-01T03:46:25.208Z,10.50
2023-04-01T03:48:51.898Z,10.50
2023-04-01T03:51:18.611Z,10.50
2023-04-01T03:53:46.215Z,10.50
2023-04-01T03:56:13.074Z,10.50
2023-04-01T03:58:40.033Z,10.50
2023-04-01T04:01:21.844Z,10.50
2023-04-01T04:03:50.559Z,10.50
2023-04-01T04:06:19.247Z,10.60
2023-04-01T04:08:46.228Z,10.60
2023-04-01T04:11:13.082Z,10.60
2023-04-01T04:13:39.795Z,10.60
2023-04-01T04:16:07.019Z,10.60
2023-04-01T04:18:34.364Z,10.60
2023-04-01T04:21:01.120Z,10.60
2023-04-01T04:23:29.277Z,10.60
2023-04-01T04:25:58.635Z,10.60
2023-04-01T04:28:27.129Z,10.60
2023-04-01T04:30:54.561Z,10.60
2023-04-01T04:33:22.515Z,10.60
2023-04-01T04:35:49.805Z,10.70
2023-04-01T04:38:17.098Z,10.70
2023-04-01T04:40:45.356Z,10.70
2023-04-01T04:43:13.642Z,10.70
2023-04-01T04:45:40.881Z,10.70
2023-04-01T04:48:11.906Z,10.70
2023-04-01T04:50:38.526Z,10.70
2023-04-01T04:53:05.314Z,10.70
2023-04-01T04:55:32.186Z,10.70
2023-04-01T04:57:59.051Z,10.70
2023-04-01T05:00:25.744Z,10.70
2023-04-01T05:02:52.854Z,10.70
2023-04-01T05:05:19.862Z,10.70
2023-04-01T05:07:46.498Z,10.70
2023-04-01T05:10:13.090Z,10.70
2023-04-01T05:12:39.813Z,10.70
2023-04-01T05:15:07.371Z,10.70
2023-04-01T05:17:34.051Z,10.70
2023-04-01T05:20:00.804Z,10.60
2023-04-01T05:22:27.519Z,10.60
2023-04-01T05:24:54.202Z,10.60
2023-04-01T05:27:21.360Z,10.60
2023-04-01T05:29:48.059Z,10.70
2023-04-01T05:32:14.796Z,10.70
2023-04-01T05:34:41.587Z,10.60
2023-04-01T05:37:08.328Z,10.70
2023-04-01T05:39:41.264Z,10.60
2023-04-01T05:42:08.708Z,10.60
2023-04-01T05:44:36.353Z,10.50
2023-04-01T05:47:04.410Z,10.50
2023-04-01T05:49:31.232Z,10.50
2023-04-01T05:51:58.144Z,10.50
2023-04-01T05:54:24.784Z,10.50
2023-04-01T05:56:51.466Z,10.50
2023-04-01T05:59:18.282Z,10.50
2023-04-01T06:01:45.163Z,10.50
2023-04-01T06:04:16.353Z,10.50
2023-04-01T06:06:43.180Z,10.60
2023-04-01T06:09:36.157Z,10.60
2023-04-01T06:12:08.533Z,10.60
2023-04-01T06:14:59.773Z,10.60
2023-04-01T06:18:03.251Z,10.60
2023-04-01T06:20:29.894Z,10.60
2023-04-01T06:23:21.169Z,10.60
2023-04-01T06:26:09.408Z,10.60
2023-04-01T06:28:42.038Z,10.60
2023-04-01T06:31:31.801Z,10.70
2023-04-01T06:34:17.273Z,10.70
2023-04-01T06:36:46.942Z,10.70
2023-04-01T06:39:23.877Z,10.80
2023-04-01T06:42:15.227Z,10.80
2023-04-01T06:44:55.951Z,10.80
2023-04-01T06:47:37.490Z,10.80
2023-04-01T06:50:21.883Z,10.80
2023-04-01T06:52:57.085Z,10.80
2023-04-01T06:55:38.522Z,10.80
2023-04-01T06:58:11.080Z,10.80
2023-04-01T07:00:41.199Z,10.90
2023-04-01T07:03:45.447Z,10.90
2023-04-01T07:06:25.067Z,10.90
2023-04-01T07:08:53.949Z,11.00
2023-04-01T07:11:29.832Z,11.00
2023-04-01T07:14:45.967Z,11.00
2023-04-01T07:17:27.301Z,11.00
2023-04-01T07:20:14.625Z,11.10
2023-04-01T07:22:49.091Z,11.20
2023-04-01T07:25:22.214Z,11.20
2023-04-01T07:27:48.918Z,11.30
2023-04-01T07:30:18.644Z,11.40
2023-04-01T07:33:06.649Z,11.40
2023-04-01T07:35:44.500Z,11.50
2023-04-01T07:38:35.424Z,11.60
2023-04-01T07:41:29.347Z,11.60
2023-04-01T07:44:26.321Z,11.70
2023-04-01T07:47:13.634Z,11.70
2023-04-01T07:49:59.106Z,11.70
2023-04-01T07:52:41.168Z,11.70
2023-04-01T07:55:23.268Z,11.80
2023-04-01T07:58:28.322Z,11.80
2023-04-01T08:01:19.630Z,11.80
2023-04-01T08:04:01.274Z,12.00
2023-04-01T08:06:38.546Z,12.00
2023-04-01T08:09:26.250Z,11.90
2023-04-01T08:12:02.450Z,12.00
2023-04-01T08:14:50.218Z,12.00
2023-04-01T08:17:47.743Z,12.00
2023-04-01T08:20:39.061Z,12.00
2023-04-01T08:23:16.786Z,12.00
2023-04-01T08:26:05.516Z,12.00
2023-04-01T08:28:38.247Z,12.00
2023-04-01T08:31:17.576Z,12.00
2023-04-01T08:33:47.204Z,11.90
2023-04-01T08:36:29.371Z,11.90
2023-04-01T08:39:00.743Z,11.80
2023-04-01T08:41:45.780Z,11.80
2023-04-01T08:44:40.254Z,11.80
2023-04-01T08:47:17.704Z,11.80
2023-04-01T08:50:18.165Z,11.80
2023-04-01T08:52:58.261Z,11.90
2023-04-01T08:55:44.883Z,11.90
2023-04-01T08:58:33.302Z,12.10
2023-04-01T09:01:32.849Z,12.20
2023-04-01T09:03:59.520Z,12.30
2023-04-01T09:06:57.230Z,12.30
2023-04-01T09:09:54.961Z,12.30
2023-04-01T09:12:34.430Z,12.30
2023-04-01T09:15:15.253Z,12.40
2023-04-01T09:18:19.221Z,12.40
2023-04-01T09:21:19.588Z,12.40
2023-04-01T09:24:11.218Z,12.40
2023-04-01T09:27:19.915Z,12.40
2023-04-01T09:30:08.233Z,12.50
2023-04-01T09:33:11.920Z,12.40
2023-04-01T09:35:47.382Z,12.40
2023-04-01T09:38:32.850Z,12.30
2023-04-01T09:41:41.384Z,12.40
2023-04-01T09:44:31.998Z,12.40
2023-04-01T09:47:08.836Z,12.30
2023-04-01T09:49:41.302Z,12.30
2023-04-01T09:52:18.890Z,12.30
2023-04-01T09:55:20.274Z,12.40
2023-04-01T09:58:05.868Z,12.40
2023-04-01T10:01:14.080Z,12.40
2023-04-01T10:03:59.311Z,12.50
2023-04-01T10:06:44.300Z,12.60
2023-04-01T10:09:29.903Z,12.70
2023-04-01T10:12:23.449Z,12.80
2023-04-01T10:15:17.948Z,12.90
2023-04-01T10:17:50.900Z,13.00
2023-04-01T10:20:59.284Z,13.10
2023-04-01T10:23:35.315Z,13.00
2023-04-01T10:26:28.025Z,12.90
2023-04-01T10:29:13.374Z,12.80
2023-04-01T10:32:04.612Z,12.70
2023-04-01T10:34:50.094Z,12.60
2023-04-01T10:37:47.574Z,12.70
2023-04-01T10:40:51.255Z,12.70
2023-04-01T10:43:45.656Z,12.70
2023-04-01T10:46:34.359Z,12.80
2023-04-01T10:49:17.342Z,12.90
2023-04-01T10:52:08.402Z,13.00
2023-04-01T10:54:50.229Z,13.00
2023-04-01T10:57:41.212Z,13.00
2023-04-01T11:00:32.781Z,13.10
2023-04-01T11:03:23.746Z,13.20
2023-04-01T11:06:11.720Z,13.40
2023-04-01T11:09:02.319Z,13.40
2023-04-01T11:12:03.121Z,13.50
2023-04-01T11:14:41.381Z,13.60
2023-04-01T11:17:42.263Z,13.60
2023-04-01T11:20:30.619Z,13.50
2023-04-01T11:23:10.405Z,13.40
2023-04-01T11:26:05.688Z,13.40
2023-04-01T11:29:04.292Z,13.40
2023-04-01T11:31:56.040Z,13.30
2023-04-01T11:35:04.046Z,13.30
2023-04-01T11:37:46.279Z,13.20
2023-04-01T11:40:30.068Z,13.20
2023-04-01T11:43:34.021Z,13.20
2023-04-01T11:46:11.555Z,13.10
2023-04-01T11:49:03.821Z,13.20
2023-04-01T11:51:48.693Z,13.20
2023-04-01T11:54:33.697Z,13.10
2023-04-01T11:57:15.983Z,13.00
2023-04-01T11:59:56.293Z,13.10
2023-04-01T12:03:01.037Z,13.00
2023-04-01T12:05:55.573Z,13.00
2023-04-01T12:08:47.501Z,13.00
2023-04-01T12:11:36.007Z,13.10
2023-04-01T12:14:31.431Z,13.00
2023-04-01T12:17:26.185Z,12.90
2023-04-01T12:19:57.086Z,12.90
2023-04-01T12:22:44.755Z,12.90
2023-04-01T12:25:36.857Z,12.90
2023-04-01T12:28:18.565Z,12.90
2023-04-01T12:30:58.220Z,13.00
2023-04-01T12:33:46.295Z,13.00
2023-04-01T12:36:31.540Z,13.00
2023-04-01T12:39:36.674Z,13.10
2023-04-01T12:42:12.496Z,13.00
2023-04-01T12:44:43.229Z,13.20
2023-04-01T12:47:40.120Z,13.30
2023-04-01T12:50:39.737Z,13.50
2023-04-01T12:53:43.907Z,13.50
2023-04-01T12:56:21.408Z,13.30
2023-04-01T12:59:21.261Z,13.00
2023-04-01T13:02:19.792Z,12.90
2023-04-01T13:04:56.930Z,12.70
2023-04-01T13:07:29.317Z,12.70
2023-04-01T13:09:58.784Z,12.60
2023-04-01T13:12:43.958Z,12.50
2023-04-01T13:15:13.359Z,12.40
2023-04-01T13:17:47.708Z,12.40
2023-04-01T13:20:19.153Z,12.50
2023-04-01T13:23:13.449Z,12.70
2023-04-01T13:26:13.033Z,12.80
2023-04-01T13:28:46.729Z,12.90
2023-04-01T13:31:42.951Z,13.00
2023-04-01T13:34:34.516Z,13.10
2023-04-01T13:37:27.869Z,13.20
2023-04-01T13:40:26.775Z,13.30
2023-04-01T13:43:19.946Z,13.30
2023-04-01T13:46:12.205Z,13.30
2023-04-01T13:48:48.076Z,13.30
2023-04-01T13:51:49.701Z,13.30
2023-04-01T13:54:49.167Z,13.40
2023-04-01T13:57:22.019Z,13.50
2023-04-01T14:00:16.579Z,13.60
2023-04-01T14:03:11.970Z,13.60
2023-04-01T14:06:04.266Z,13.50
2023-04-01T14:08:49.483Z,13.50
2023-04-01T14:11:34.635Z,13.50
2023-04-01T14:14:23.157Z,13.60
2023-04-01T14:16:59.041Z,13.70
2023-04-01T14:19:39.133Z,13.80
2023-04-01T14:22:24.446Z,13.90
2023-04-01T14:25:23.313Z,13.90
2023-04-01T14:28:11.562Z,13.80
2023-04-01T14:30:57.100Z,13.80
2023-04-01T14:33:35.378Z,13.80
2023-04-01T14:36:20.241Z,13.70
2023-04-01T14:39:01.676Z,13.70
2023-04-01T14:41:52.572Z,13.70
2023-04-01T14:44:45.173Z,13.60
2023-04-01T14:47:55.056Z,13.50
2023-04-01T14:50:30.846Z,13.50
2023-04-01T14:53:13.668Z,13.60
2023-04-01T14:55:43.121Z,13.60
2023-04-01T14:58:12.823Z,13.60
2023-04-01T15:01:07.149Z,13.50
2023-04-01T15:03:41.364Z,13.50
2023-04-01T15:06:19.606Z,13.60
2023-04-01T15:09:01.872Z,13.50
2023-04-01T15:11:31.603Z,13.40
2023-04-01T15:14:50.364Z,13.40
2023-04-01T15:17:59.405Z,13.40
2023-04-01T15:21:03.070Z,13.40
2023-04-01T15:23:52.339Z,13.40
2023-04-01T15:26:43.535Z,13.40
2023-04-01T15:29:19.292Z,13.40
2023-04-01T15:31:53.873Z,13.50
2023-04-01T15:34:26.146Z,13.60
2023-04-01T15:36:56.775Z,13.80
2023-04-01T15:39:42.514Z,13.80
2023-04-01T15:42:40.715Z,13.80
2023-04-01T15:45:40.717Z,13.70
2023-04-01T15:48:14.094Z,13.60
2023-04-01T15:50:56.683Z,13.50
2023-04-01T15:53:38.291Z,13.40
2023-04-01T15:56:13.734Z,13.50
2023-04-01T15:59:19.293Z,13.50
2023-04-01T16:02:02.106Z,13.60
2023-04-01T16:04:43.778Z,13.50
2023-04-01T16:07:49.848Z,13.40
2023-04-01T16:10:44.302Z,13.40
2023-04-01T16:13:47.326Z,13.20
2023-04-01T16:16:38.309Z,13.00
2023-04-01T16:19:19.084Z,12.90
2023-04-01T16:22:03.058Z,12.80
2023-04-01T16:25:10.762Z,12.80
2023-04-01T16:28:15.153Z,12.80
2023-04-01T16:31:17.702Z,12.80
2023-04-01T16:33:57.250Z,12.90
2023-04-01T16:36:30.747Z,12.90
2023-04-01T16:39:09.372Z,12.80
2023-04-01T16:41:42.569Z,12.90
2023-04-01T16:44:23.100Z,12.80
2023-04-01T16:46:56.594Z,12.80
2023-04-01T16:49:37.289Z,12.80
2023-04-01T16:52:03.858Z,12.80
2023-04-01T16:54:49.660Z,12.80
2023-04-01T16:57:32.473Z,12.80
2023-04-01T17:00:26.311Z,12.80
2023-04-01T17:03:03.964Z,12.70
2023-04-01T17:05:43.939Z,12.70
2023-04-01T17:08:33.802Z,12.60
2023-04-01T17:11:19.824Z,12.60
2023-04-01T17:13:55.856Z,12.50
2023-04-01T17:16:43.254Z,12.50
2023-04-01T17:19:24.893Z,12.50
2023-04-01T17:22:13.277Z,12.40
2023-04-01T17:25:10.819Z,12.40
2023-04-01T17:27:56.637Z,12.40
2023-04-01T17:30:26.669Z,12.40
2023-04-01T17:33:06.451Z,12.30
2023-04-01T17:35:40.384Z,12.30
2023-04-01T17:38:22.083Z,12.30
2023-04-01T17:41:17.816Z,12.30
2023-04-01T17:44:12.486Z,12.30
2023-04-01T17:47:12.706Z,12.30
2023-04-01T17:49:43.379Z,12.30
2023-04-01T17:52:33.154Z,12.30
2023-04-01T17:55:18.944Z,12.30
2023-04-01T17:58:19.333Z,12.30
2023-04-01T18:01:18.711Z,12.30
2023-04-01T18:04:03.436Z,12.20
2023-04-01T18:07:07.840Z,12.20
2023-04-01T18:09:56.762Z,12.20
2023-04-01T18:13:01.264Z,12.20
2023-04-01T18:16:08.310Z,12.20
2023-04-01T18:19:02.526Z,12.10
2023-04-01T18:21:34.953Z,12.10
2023-04-01T18:24:23.222Z,12.00
2023-04-01T18:27:16.802Z,12.00
2023-04-01T18:30:08.295Z,12.00
2023-04-01T18:32:47.211Z,11.90
2023-04-01T18:35:26.036Z,11.90
2023-04-01T18:38:02.493Z,11.80
2023-04-01T18:40:44.672Z,11.80
2023-04-01T18:43:38.792Z,11.80
2023-04-01T18:46:28.169Z,11.70
2023-04-01T18:49:04.025Z,11.70
2023-04-01T18:51:54.660Z,11.70
2023-04-01T18:54:25.174Z,11.70
2023-04-01T18:56:51.889Z,11.70
2023-04-01T18:59:35.685Z,11.70
2023-04-01T19:02:41.460Z,11.70
2023-04-01T19:05:20.370Z,11.60
2023-04-01T19:07:52.928Z,11.60
2023-04-01T19:10:34.898Z,11.60
2023-04-01T19:13:20.663Z,11.60
2023-04-01T19:16:06.498Z,11.50
2023-04-01T19:19:05.564Z,11.50
2023-04-01T19:21:39.417Z,11.50
2023-04-01T19:24:08.844Z,11.40
2023-04-01T19:26:57.945Z,11.40
2023-04-01T19:29:55.498Z,11.30
2023-04-01T19:33:07.112Z,11.30
2023-04-01T19:35:47.124Z,11.20
2023-04-01T19:38:13.760Z,11.20
2023-04-01T19:41:03.541Z,11.20
2023-04-01T19:43:55.490Z,11.20
2023-04-01T19:47:23.954Z,11.10
2023-04-01T19:50:29.467Z,11.10
2023-04-01T19:53:00.188Z,11.10
2023-04-01T19:55:42.006Z,11.10
2023-04-01T19:58:29.763Z,11.10
2023-04-01T20:00:59.942Z,11.10
2023-04-01T20:03:42.536Z,11.10
2023-04-01T20:08:51.984Z,11.10
2023-04-01T20:11:57.914Z,11.10
2023-04-01T20:14:46.809Z,11.10
2023-04-01T20:17:21.574Z,11.10
2023-04-01T20:20:09.382Z,11.10
2023-04-01T20:22:45.025Z,11.00
2023-04-01T20:25:24.801Z,11.10
2023-04-01T20:27:54.638Z,11.10
2023-04-01T20:30:54.133Z,11.10
2023-04-01T20:33:46.774Z,11.10
2023-04-01T20:36:52.535Z,11.00
2023-04-01T20:39:41.576Z,11.10
2023-04-01T20:42:49.052Z,11.00
2023-04-01T20:45:18.694Z,11.00
2023-04-01T20:47:48.330Z,11.00
2023-04-01T20:50:44.637Z,11.00
2023-04-01T20:53:21.064Z,10.90
2023-04-01T20:55:47.631Z,10.90
2023-04-01T20:58:50.796Z,10.90
2023-04-01T21:01:17.448Z,10.90
2023-04-01T21:03:59.134Z,10.80
2023-04-01T21:06:39.764Z,10.90
2023-04-01T21:09:06.336Z,10.90
2023-04-01T21:11:57.174Z,10.90
2023-04-01T21:14:54.704Z,10.90
2023-04-01T21:17:47.134Z,10.90
2023-04-01T21:20:43.195Z,10.90
2023-04-01T21:23:35.120Z,11.00
2023-04-01T21:26:27.893Z,11.00
2023-04-01T21:29:12.972Z,11.00
2023-04-01T21:32:01.948Z,11.00
2023-04-01T21:35:00.851Z,11.00
2023-04-01T21:37:42.390Z,11.00
2023-04-01T21:40:54.403Z,11.00
2023-04-01T21:43:52.812Z,11.00
2023-04-01T21:46:25.497Z,11.00
2023-04-01T21:49:20.559Z,11.00
2023-04-01T21:52:31.968Z,11.00
2023-04-01T21:55:33.866Z,11.00
2023-04-01T21:58:25.116Z,10.90
2023-04-01T22:01:05.016Z,10.90
2023-04-01T22:03:59.604Z,10.90
2023-04-01T22:06:29.475Z,11.00
2023-04-01T22:09:28.593Z,10.90
2023-04-01T22:12:19.185Z,11.00
2023-04-01T22:15:13.446Z,11.00
2023-04-01T22:17:52.765Z,11.00
2023-04-01T22:20:39.211Z,11.00
2023-04-01T22:23:42.336Z,11.10
2023-04-01T22:26:17.032Z,11.10
2023-04-01T22:29:04.564Z,11.10
2023-04-01T22:32:09.269Z,11.10
2023-04-01T22:34:46.996Z,11.10
2023-04-01T22:37:30.545Z,11.00
2023-04-01T22:40:41.401Z,11.00
2023-04-01T22:43:13.552Z,11.00
2023-04-01T22:46:04.339Z,11.10
2023-04-01T22:48:54.833Z,11.00
2023-04-01T22:51:45.864Z,11.00
2023-04-01T22:54:22.634Z,11.00
2023-04-01T22:57:06.022Z,11.00
2023-04-01T22:59:56.002Z,10.90
2023-04-01T23:02:30.662Z,10.90
2023-04-01T23:05:01.296Z,10.80
2023-04-01T23:07:37.938Z,10.90
2023-04-01T23:10:12.977Z,10.90
2023-04-01T23:12:41.279Z,10.90
2023-04-01T23:15:15.343Z,11.00
2023-04-01T23:18:04.986Z,11.00
2023-04-01T23:20:52.770Z,11.10
2023-04-01T23:23:34.880Z,11.10
2023-04-01T23:26:11.476Z,11.10
2023-04-01T23:28:56.096Z,11.10
2023-04-01T23:31:33.448Z,11.10
2023-04-01T23:34:03.368Z,11.10
2023-04-01T23:36:32.584Z,11.10
2023-04-01T23:39:04.029Z,11.10
2023-04-01T23:41:33.430Z,11.10
2023-04-01T23:44:08.771Z,11.10
2023-04-01T23:46:36.692Z,11.10
2023-04-01T23:49:10.406Z,11.10
2023-04-01T23:51:40.516Z,11.10
2023-04-01T23:54:32.425Z,11.00
2023-04-01T23:56:59.731Z,11.00
2023-04-01T23:59:37.143Z,11.00
